createdAt,value
2018-01-24T00:01:09.297Z,100853.39
2018-01-24T00:03:36.818Z,100847.44
2018-01-24T00:06:04.422Z,100841.52
2018-01-24T00:08:31.993Z,100833.42
2018-01-24T00:10:59.652Z,100833.42
2018-01-24T00:13:27.158Z,100834.27
2018-01-24T00:15:54.669Z,100838.97
2018-01-24T00:18:22.237Z,100836.82
2018-01-24T00:20:49.741Z,100838.94
2018-01-24T00:23:17.304Z,100845.74
2018-01-24T00:25:44.794Z,100842.34
2018-01-24T00:28:12.305Z,100849.14
2018-01-24T00:30:39.934Z,100854.24
2018-01-24T00:33:07.431Z,100846.17
2018-01-24T00:35:35.362Z,100851.69
2018-01-24T00:38:02.880Z,100847.88
2018-01-24T00:40:30.484Z,100837.66
2018-01-24T00:42:57.967Z,100841.09
2018-01-24T00:45:25.516Z,100854.23
2018-01-24T00:47:53.062Z,100849.17
2018-01-24T00:50:20.566Z,100858.09
2018-01-24T00:52:48.081Z,100857.24
2018-01-24T00:55:15.590Z,100867.41
2018-01-24T00:57:43.090Z,100864.44
2018-01-24T01:00:10.616Z,100868.72
2018-01-24T01:02:38.155Z,100861.50
2018-01-24T01:05:05.758Z,100867.02
2018-01-24T01:07:33.264Z,100861.45
2018-01-24T01:10:00.821Z,100860.20
2018-01-24T01:12:28.373Z,100866.14
2018-01-24T01:14:55.896Z,100858.94
2018-01-24T01:17:23.492Z,100855.09
2018-01-24T01:19:50.992Z,100858.51
2018-01-24T01:22:18.503Z,100850.86
2018-01-24T01:24:46.010Z,100856.78
2018-01-24T01:27:13.508Z,100857.63
2018-01-24T01:29:41.009Z,100850.00
2018-01-24T01:32:08.523Z,100843.17
2018-01-24T01:34:36.079Z,100839.80
2018-01-24T01:37:03.579Z,100834.30
2018-01-24T01:39:31.153Z,100841.50
2018-01-24T01:41:58.653Z,100843.21
2018-01-24T01:44:26.159Z,100845.75
2018-01-24T01:46:53.671Z,100841.06
2018-01-24T01:49:21.175Z,100851.29
2018-01-24T01:51:48.741Z,100836.38
2018-01-24T01:54:16.259Z,100847.02
2018-01-24T01:56:43.749Z,100837.66
2018-01-24T01:59:11.259Z,100841.06
2018-01-24T02:01:38.816Z,100827.89
2018-01-24T02:04:07.042Z,100815.98
2018-01-24T02:06:34.590Z,100813.89
2018-01-24T02:09:02.126Z,100807.50
2018-01-24T02:11:29.743Z,100823.23
2018-01-24T02:13:57.253Z,100822.78
2018-01-24T02:16:24.875Z,100828.33
2018-01-24T02:18:52.467Z,100833.43
2018-01-24T02:21:20.015Z,100835.09
2018-01-24T02:23:47.556Z,100825.75
2018-01-24T02:26:15.094Z,100824.50
2018-01-24T02:28:42.680Z,100825.77
2018-01-24T02:31:10.263Z,100826.62
2018-01-24T02:33:37.777Z,100828.33
2018-01-24T02:36:05.423Z,100818.09
2018-01-24T02:38:44.654Z,100822.33
2018-01-24T02:41:12.168Z,100819.78
2018-01-24T02:43:39.697Z,100812.97
2018-01-24T02:46:07.228Z,100807.88
2018-01-24T02:48:34.749Z,100809.15
2018-01-24T02:51:02.251Z,100809.98
2018-01-24T02:53:29.813Z,100816.80
2018-01-24T02:55:57.379Z,100812.53
2018-01-24T02:58:24.890Z,100809.56
2018-01-24T03:00:52.408Z,100809.58
2018-01-24T03:03:19.938Z,100799.79
2018-01-24T03:05:47.444Z,100815.08
2018-01-24T03:08:15.005Z,100816.34
2018-01-24T03:10:42.505Z,100810.39
2018-01-24T03:13:10.018Z,100818.91
2018-01-24T03:15:37.511Z,100814.23
2018-01-24T03:18:05.068Z,100817.19
2018-01-24T03:20:32.577Z,100810.80
2018-01-24T03:23:00.073Z,100818.05
2018-01-24T03:25:27.612Z,100813.34
2018-01-24T03:27:55.090Z,100811.66
2018-01-24T03:30:22.644Z,100812.48
2018-01-24T03:32:50.221Z,100824.82
2018-01-24T03:35:17.714Z,100814.59
2018-01-24T03:37:45.255Z,100804.42
2018-01-24T03:40:12.772Z,100811.61
2018-01-24T03:42:40.319Z,100798.39
2018-01-24T03:45:07.834Z,100799.67
2018-01-24T03:47:35.335Z,100804.77
2018-01-24T03:50:02.837Z,100777.98
2018-01-24T03:52:30.380Z,100798.80
2018-01-24T03:54:57.887Z,100802.61
2018-01-24T03:57:25.420Z,100794.92
2018-01-24T03:59:52.945Z,100797.50
2018-01-24T04:02:20.444Z,100789.86
2018-01-24T04:04:48.004Z,100795.84
2018-01-24T04:07:15.544Z,100790.73
2018-01-24T04:09:43.082Z,100785.63
2018-01-24T04:12:10.579Z,100800.49
2018-01-24T04:14:38.580Z,100802.22
2018-01-24T04:17:06.186Z,100797.94
2018-01-24T04:19:33.699Z,100795.80
2018-01-24T04:22:01.195Z,100794.92
2018-01-24T04:24:28.716Z,100813.19
2018-01-24T04:26:56.202Z,100813.20
2018-01-24T04:29:23.729Z,100800.41
2018-01-24T04:31:51.214Z,100822.97
2018-01-24T04:34:18.805Z,100813.97
2018-01-24T04:36:46.320Z,100811.45
2018-01-24T04:39:13.932Z,100817.37
2018-01-24T04:41:41.428Z,100815.63
2018-01-24T04:44:08.932Z,100819.91
2018-01-24T04:46:36.426Z,100819.44
2018-01-24T04:49:03.939Z,100822.05
2018-01-24T04:51:31.478Z,100812.65
2018-01-24T04:53:58.982Z,100813.48
2018-01-24T04:56:26.664Z,100815.19
2018-01-24T04:58:54.173Z,100817.77
2018-01-24T05:01:21.683Z,100820.70
2018-01-24T05:03:49.178Z,100824.11
2018-01-24T05:06:16.653Z,100820.25
2018-01-24T05:08:44.161Z,100825.36
2018-01-24T05:11:11.694Z,100832.12
2018-01-24T05:13:39.218Z,100824.47
2018-01-24T05:16:06.759Z,100832.09
2018-01-24T05:18:34.361Z,100844.03
2018-01-24T05:21:04.363Z,100848.27
2018-01-24T05:23:31.874Z,100847.41
2018-01-24T05:25:59.456Z,100855.95
2018-01-24T05:28:26.990Z,100860.59
2018-01-24T05:30:54.502Z,100870.00
2018-01-24T05:33:22.064Z,100862.77
2018-01-24T05:35:49.654Z,100864.49
2018-01-24T05:38:17.210Z,100860.66
2018-01-24T05:40:44.751Z,100871.33
2018-01-24T05:43:12.255Z,100864.49
2018-01-24T05:45:39.798Z,100869.98
2018-01-24T05:48:07.358Z,100876.39
2018-01-24T05:50:34.892Z,100871.28
2018-01-24T05:53:02.468Z,100872.13
2018-01-24T05:55:30.004Z,100869.97
2018-01-24T05:57:57.511Z,100869.08
2018-01-24T06:00:25.027Z,100863.56
2018-01-24T06:02:52.539Z,100869.95
2018-01-24T06:07:48.868Z,100866.55
2018-01-24T06:10:16.649Z,100869.09
2018-01-24T06:12:44.380Z,100871.66
2018-01-24T06:15:15.902Z,100871.28
2018-01-24T06:17:49.902Z,100866.99
2018-01-24T06:20:17.433Z,100873.72
2018-01-24T06:22:44.995Z,100860.17
2018-01-24T06:25:12.566Z,100867.73
2018-01-24T06:27:40.088Z,100874.12
2018-01-24T06:30:07.597Z,100857.58
2018-01-24T06:32:35.114Z,100862.74
2018-01-24T06:35:02.621Z,100861.91
2018-01-24T06:37:30.151Z,100859.75
2018-01-24T06:39:57.682Z,100855.50
2018-01-24T06:42:25.243Z,100850.41
2018-01-24T06:44:52.783Z,100854.67
2018-01-24T06:47:20.345Z,100841.51
2018-01-24T06:49:47.864Z,100845.36
2018-01-24T06:52:15.389Z,100842.38
2018-01-24T06:54:42.929Z,100838.16
2018-01-24T06:57:10.490Z,100833.92
2018-01-24T06:59:38.043Z,100835.64
2018-01-24T07:02:05.600Z,100839.05
2018-01-24T07:04:33.105Z,100827.98
2018-01-24T07:07:00.648Z,100837.77
2018-01-24T07:09:28.177Z,100833.52
2018-01-24T07:12:07.441Z,100830.97
2018-01-24T07:14:42.473Z,100830.95
2018-01-24T07:17:10.039Z,100833.44
2018-01-24T07:19:37.572Z,100834.78
2018-01-24T07:22:05.752Z,100830.45
2018-01-24T07:24:34.121Z,100830.50
2018-01-24T07:27:01.612Z,100830.05
2018-01-24T07:29:29.207Z,100823.66
2018-01-24T07:31:56.694Z,100825.84
2018-01-24T07:34:24.181Z,100818.12
2018-01-24T07:36:51.695Z,100815.13
2018-01-24T07:39:19.187Z,100818.95
2018-01-24T07:41:46.714Z,100818.98
2018-01-24T07:44:15.823Z,100823.69
2018-01-24T07:46:45.087Z,100812.12
2018-01-24T07:49:12.650Z,100820.21
2018-01-24T07:51:40.236Z,100828.15
2018-01-24T07:54:08.530Z,100821.63
2018-01-24T07:56:37.052Z,100822.28
2018-01-24T07:59:04.618Z,100815.44
2018-01-24T08:01:32.147Z,100815.38
2018-01-24T08:03:59.648Z,100821.41
2018-01-24T08:06:27.161Z,100817.52
2018-01-24T08:08:54.700Z,100814.09
2018-01-24T08:11:22.949Z,100809.66
2018-01-24T08:13:50.469Z,100813.88
2018-01-24T08:16:17.991Z,100814.19
2018-01-24T08:18:45.531Z,100813.52
2018-01-24T08:21:13.058Z,100817.31
2018-01-24T08:23:40.607Z,100815.20
2018-01-24T08:26:08.113Z,100808.34
2018-01-24T08:28:35.654Z,100813.40
2018-01-24T08:31:03.134Z,100808.61
2018-01-24T08:33:30.685Z,100814.42
2018-01-24T08:35:58.199Z,100821.24
2018-01-24T08:38:25.771Z,100811.51
2018-01-24T08:40:53.274Z,100824.34
2018-01-24T08:43:20.774Z,100837.55
2018-01-24T08:45:48.278Z,100825.91
2018-01-24T08:48:15.770Z,100821.70
2018-01-24T08:50:43.293Z,100821.66
2018-01-24T08:53:10.794Z,100822.02
2018-01-24T08:55:38.998Z,100818.05
2018-01-24T08:58:06.501Z,100815.41
2018-01-24T09:00:34.049Z,100812.27
2018-01-24T09:03:01.602Z,100808.77
2018-01-24T09:05:29.159Z,100810.89
2018-01-24T09:07:57.511Z,100809.86
2018-01-24T09:10:25.027Z,100809.41
2018-01-24T09:12:52.566Z,100815.66
2018-01-24T09:15:20.127Z,100809.59
2018-01-24T09:17:47.663Z,100808.34
2018-01-24T09:20:15.196Z,100817.39
2018-01-24T09:22:42.732Z,100808.48
2018-01-24T09:25:10.368Z,100794.38
2018-01-24T09:27:37.861Z,100796.91
2018-01-24T09:30:05.408Z,100802.78
2018-01-24T09:32:32.941Z,100810.48
2018-01-24T09:35:00.442Z,100808.80
2018-01-24T09:37:27.988Z,100808.02
2018-01-24T09:39:55.604Z,100800.75
2018-01-24T09:42:23.264Z,100805.00
2018-01-24T09:44:50.786Z,100809.23
2018-01-24T09:47:18.295Z,100801.83
2018-01-24T09:49:45.817Z,100803.39
2018-01-24T09:52:13.358Z,100794.16
2018-01-24T09:54:40.969Z,100791.14
2018-01-24T09:57:08.480Z,100796.39
2018-01-24T09:59:35.986Z,100793.81
2018-01-24T10:02:03.504Z,100796.05
2018-01-24T10:04:31.190Z,100787.91
2018-01-24T10:06:58.676Z,100790.73
2018-01-24T10:09:26.338Z,100790.33
2018-01-24T10:11:53.882Z,100796.19
2018-01-24T10:14:21.373Z,100784.67
2018-01-24T10:16:48.920Z,100787.90
2018-01-24T10:19:16.482Z,100785.20
2018-01-24T10:21:43.957Z,100780.09
2018-01-24T10:24:11.458Z,100788.16
2018-01-24T10:26:38.984Z,100774.81
2018-01-24T10:29:06.589Z,100783.83
2018-01-24T10:31:34.098Z,100785.72
2018-01-24T10:34:01.638Z,100782.70
2018-01-24T10:36:29.168Z,100785.81
2018-01-24T10:38:56.662Z,100789.16
2018-01-24T10:41:24.217Z,100777.66
2018-01-24T10:43:51.742Z,100775.87
2018-01-24T10:46:19.295Z,100767.34
2018-01-24T10:48:46.795Z,100757.92
2018-01-24T10:51:14.319Z,100763.50
2018-01-24T10:53:42.036Z,100748.92
2018-01-24T10:56:09.544Z,100739.85
2018-01-24T10:58:37.142Z,100738.26
2018-01-24T11:01:04.690Z,100732.95
2018-01-24T11:03:32.217Z,100725.61
2018-01-24T11:05:59.777Z,100721.80
2018-01-24T11:08:27.277Z,100720.52
2018-01-24T11:10:54.784Z,100699.67
2018-01-24T11:13:22.336Z,100704.28
2018-01-24T11:15:49.867Z,100715.73
2018-01-24T11:18:17.416Z,100708.00
2018-01-24T11:20:45.051Z,100705.86
2018-01-24T11:23:12.555Z,100707.58
2018-01-24T11:25:40.122Z,100701.95
2018-01-24T11:28:07.617Z,100697.83
2018-01-24T11:30:35.176Z,100700.38
2018-01-24T11:33:02.729Z,100705.03
2018-01-24T11:35:30.289Z,100705.48
2018-01-24T11:37:57.816Z,100694.39
2018-01-24T11:40:25.352Z,100690.11
2018-01-24T11:42:52.914Z,100685.79
2018-01-24T11:45:20.409Z,100685.61
2018-01-24T11:47:47.931Z,100677.64
2018-01-24T11:50:15.620Z,100671.44
2018-01-24T11:52:43.158Z,100664.53
2018-01-24T11:55:10.814Z,100649.86
2018-01-24T11:57:38.341Z,100644.73
2018-01-24T12:00:06.001Z,100648.41
2018-01-24T12:02:36.463Z,100637.56
2018-01-24T12:05:03.947Z,100629.91
2018-01-24T12:07:31.474Z,100622.55
2018-01-24T12:09:59.043Z,100618.20
2018-01-24T12:12:26.659Z,100621.05
2018-01-24T12:14:54.284Z,100611.33
2018-01-24T12:17:21.783Z,100607.01
2018-01-24T12:19:49.328Z,100600.64
2018-01-24T12:22:16.867Z,100606.39
2018-01-24T12:24:44.359Z,100586.41
2018-01-24T12:27:11.904Z,100592.33
2018-01-24T12:29:39.426Z,100587.55
2018-01-24T12:32:06.962Z,100573.23
2018-01-24T12:34:34.586Z,100582.97
2018-01-24T12:37:02.102Z,100578.13
2018-01-24T12:39:29.617Z,100573.86
2018-01-24T12:41:57.125Z,100545.61
2018-01-24T12:44:24.644Z,100553.67
2018-01-24T12:46:52.152Z,100555.55
2018-01-24T12:49:19.688Z,100553.16
2018-01-24T12:51:47.214Z,100535.16
2018-01-24T12:54:14.748Z,100539.36
2018-01-24T12:56:42.450Z,100538.11
2018-01-24T12:59:09.993Z,100536.77
2018-01-24T13:01:37.543Z,100532.52
2018-01-24T13:04:05.058Z,100537.69
2018-01-24T13:06:32.696Z,100530.61
2018-01-24T13:09:00.216Z,100532.58
2018-01-24T13:11:27.814Z,100510.84
2018-01-24T13:13:55.358Z,100523.53
2018-01-24T13:16:22.976Z,100510.23
2018-01-24T13:18:50.528Z,100514.18
2018-01-24T13:21:18.174Z,100503.61
2018-01-24T13:23:45.753Z,100498.23
2018-01-24T13:26:13.335Z,100497.06
2018-01-24T13:28:40.972Z,100496.91
2018-01-24T13:31:08.582Z,100492.25
2018-01-24T13:33:36.474Z,100495.33
2018-01-24T13:36:04.096Z,100483.41
2018-01-24T13:38:31.702Z,100477.80
2018-01-24T13:40:59.224Z,100475.77
2018-01-24T13:43:26.789Z,100460.13
2018-01-24T13:45:54.303Z,100460.90
2018-01-24T13:48:21.797Z,100465.23
2018-01-24T13:50:49.333Z,100471.66
2018-01-24T13:53:16.847Z,100463.89
2018-01-24T13:55:44.458Z,100465.14
2018-01-24T13:58:11.930Z,100470.73
2018-01-24T14:00:39.469Z,100452.75
2018-01-24T14:03:07.037Z,100461.35
2018-01-24T14:05:34.575Z,100458.59
2018-01-24T14:08:02.161Z,100462.93
2018-01-24T14:10:29.724Z,100457.37
2018-01-24T14:12:57.348Z,100453.94
2018-01-24T14:15:24.925Z,100448.89
2018-01-24T14:17:52.496Z,100429.05
2018-01-24T14:20:20.041Z,100439.48
2018-01-24T14:22:47.632Z,100426.13
2018-01-24T14:25:15.184Z,100421.41
2018-01-24T14:27:42.757Z,100427.92
2018-01-24T14:30:10.278Z,100425.84
2018-01-24T14:32:37.913Z,100426.58
2018-01-24T14:35:05.442Z,100417.75
2018-01-24T14:37:32.957Z,100417.33
2018-01-24T14:40:00.484Z,100406.16
2018-01-24T14:42:27.990Z,100398.94
2018-01-24T14:44:55.525Z,100386.99
2018-01-24T14:47:23.013Z,100383.63
2018-01-24T14:49:50.495Z,100390.33
2018-01-24T14:52:18.034Z,100390.91
2018-01-24T14:54:45.541Z,100378.12
2018-01-24T14:57:13.038Z,100384.48
2018-01-24T14:59:40.578Z,100378.12
2018-01-24T15:02:08.118Z,100355.23
2018-01-24T15:04:35.667Z,100350.52
2018-01-24T15:07:03.221Z,100357.59
2018-01-24T15:09:30.733Z,100364.97
2018-01-24T15:11:58.279Z,100359.03
2018-01-24T15:14:25.789Z,100347.12
2018-01-24T15:16:53.299Z,100344.23
2018-01-24T15:19:20.834Z,100355.98
2018-01-24T15:21:48.397Z,100350.30
2018-01-24T15:24:15.940Z,100332.56
2018-01-24T15:26:43.457Z,100328.22
2018-01-24T15:29:10.957Z,100333.55
2018-01-24T15:31:38.482Z,100319.98
2018-01-24T15:34:05.961Z,100325.47
2018-01-24T15:36:33.489Z,100327.81
2018-01-24T15:39:00.973Z,100315.13
2018-01-24T15:41:28.465Z,100334.09
2018-01-24T15:43:55.989Z,100319.91
2018-01-24T15:46:23.618Z,100322.00
2018-01-24T15:48:51.146Z,100322.16
2018-01-24T15:51:18.669Z,100321.16
2018-01-24T15:53:46.216Z,100317.21
2018-01-24T15:56:13.719Z,100326.08
2018-01-24T15:58:41.224Z,100325.69
2018-01-24T16:01:08.742Z,100316.61
2018-01-24T16:03:36.286Z,100316.19
2018-01-24T16:06:03.842Z,100315.91
2018-01-24T16:08:31.372Z,100309.94
2018-01-24T16:10:58.887Z,100319.02
2018-01-24T16:13:26.407Z,100313.95
2018-01-24T16:15:54.131Z,100309.42
2018-01-24T16:18:21.617Z,100302.36
2018-01-24T16:20:49.104Z,100300.47
2018-01-24T16:23:16.609Z,100306.63
2018-01-24T16:25:44.108Z,100309.52
2018-01-24T16:28:11.602Z,100318.25
2018-01-24T16:30:39.233Z,100316.03
2018-01-24T16:33:08.055Z,100316.99
2018-01-24T16:35:36.536Z,100320.91
2018-01-24T16:38:04.999Z,100331.05
2018-01-24T16:40:32.667Z,100316.16
2018-01-24T16:43:01.711Z,100321.55
2018-01-24T16:45:29.211Z,100325.66
2018-01-24T16:47:56.760Z,100338.84
2018-01-24T16:50:24.283Z,100327.68
2018-01-24T16:52:51.894Z,100338.84
2018-01-24T16:55:19.422Z,100340.20
2018-01-24T16:57:46.963Z,100347.84
2018-01-24T17:00:15.049Z,100341.32
2018-01-24T17:02:43.142Z,100326.75
2018-01-24T17:05:10.662Z,100359.55
2018-01-24T17:07:38.181Z,100353.64
2018-01-24T17:10:05.708Z,100360.86
2018-01-24T17:12:33.225Z,100354.19
2018-01-24T17:15:00.830Z,100343.95
2018-01-24T17:17:28.337Z,100357.81
2018-01-24T17:19:55.833Z,100360.03
2018-01-24T17:22:23.374Z,100356.11
2018-01-24T17:24:50.900Z,100359.23
2018-01-24T17:27:18.394Z,100369.05
2018-01-24T17:29:45.889Z,100348.48
2018-01-24T17:32:13.394Z,100352.78
2018-01-24T17:34:40.926Z,100347.03
2018-01-24T17:37:08.492Z,100331.59
2018-01-24T17:39:36.044Z,100334.19
2018-01-24T17:42:03.631Z,100330.75
2018-01-24T17:44:31.182Z,100326.32
2018-01-24T17:46:58.730Z,100326.02
2018-01-24T17:49:26.617Z,100315.02
2018-01-24T17:51:54.099Z,100315.98
2018-01-24T17:54:22.057Z,100320.28
2018-01-24T17:56:49.614Z,100320.59
2018-01-24T17:59:17.297Z,100322.23
2018-01-24T18:01:44.846Z,100322.40
2018-01-24T18:04:12.329Z,100316.08
2018-01-24T18:06:39.874Z,100318.34
2018-01-24T18:09:07.398Z,100305.84
2018-01-24T18:11:34.960Z,100301.98
2018-01-24T18:14:03.339Z,100296.30
2018-01-24T18:16:30.870Z,100307.34
2018-01-24T18:18:58.440Z,100292.90
2018-01-24T18:21:26.013Z,100309.91
2018-01-24T18:23:53.574Z,100291.93
2018-01-24T18:26:21.077Z,100289.39
2018-01-24T18:28:49.069Z,100278.81
2018-01-24T18:31:16.663Z,100278.08
2018-01-24T18:33:44.165Z,100280.61
2018-01-24T18:36:13.573Z,100286.65
2018-01-24T18:38:41.251Z,100281.16
2018-01-24T18:41:08.804Z,100276.94
2018-01-24T18:43:36.319Z,100268.23
2018-01-24T18:46:03.833Z,100256.77
2018-01-24T18:48:31.417Z,100265.52
2018-01-24T18:50:58.912Z,100251.25
2018-01-24T18:53:26.411Z,100259.23
2018-01-24T18:55:53.923Z,100258.67
2018-01-24T18:58:21.493Z,100258.84
2018-01-24T19:00:48.973Z,100258.67
2018-01-24T19:03:16.475Z,100249.76
2018-01-24T19:05:43.977Z,100220.75
2018-01-24T19:08:11.445Z,100237.55
2018-01-24T19:10:39.875Z,100228.59
2018-01-24T19:13:07.368Z,100216.77
2018-01-24T19:15:34.937Z,100213.99
2018-01-24T19:18:03.351Z,100219.36
2018-01-24T19:20:30.936Z,100223.59
2018-01-24T19:22:58.485Z,100223.98
2018-01-24T19:25:26.082Z,100220.34
2018-01-24T19:27:53.714Z,100222.24
2018-01-24T19:30:21.221Z,100222.06
2018-01-24T19:32:48.709Z,100221.13
2018-01-24T19:35:16.333Z,100221.16
2018-01-24T19:37:44.305Z,100212.31
2018-01-24T19:40:11.860Z,100217.03
2018-01-24T19:42:39.444Z,100219.81
2018-01-24T19:45:06.969Z,100209.27
2018-01-24T19:47:34.482Z,100205.41
2018-01-24T19:50:02.060Z,100185.61
2018-01-24T19:52:29.620Z,100196.02
2018-01-24T19:54:57.181Z,100202.36
2018-01-24T19:57:24.754Z,100201.08
2018-01-24T19:59:52.337Z,100205.06
2018-01-24T20:02:19.838Z,100202.53
2018-01-24T20:04:47.343Z,100202.84
2018-01-24T20:07:14.856Z,100198.13
2018-01-24T20:09:42.425Z,100194.97
2018-01-24T20:12:09.908Z,100188.56
2018-01-24T20:14:37.767Z,100177.98
2018-01-24T20:17:05.273Z,100182.73
2018-01-24T20:19:32.820Z,100172.85
2018-01-24T20:22:00.369Z,100175.09
2018-01-24T20:24:27.921Z,100169.41
2018-01-24T20:26:55.457Z,100174.09
2018-01-24T20:29:23.108Z,100162.89
2018-01-24T20:31:50.694Z,100167.41
2018-01-24T20:34:18.196Z,100168.03
2018-01-24T20:36:45.737Z,100176.83
2018-01-24T20:39:13.331Z,100156.66
2018-01-24T20:41:40.848Z,100155.92
2018-01-24T20:44:08.364Z,100160.88
2018-01-24T20:46:36.084Z,100147.59
2018-01-24T20:49:03.609Z,100139.06
2018-01-24T20:51:31.124Z,100136.43
2018-01-24T20:53:58.621Z,100140.53
2018-01-24T20:56:26.251Z,100134.49
2018-01-24T20:58:53.773Z,100136.54
2018-01-24T21:01:21.320Z,100136.57
2018-01-24T21:03:49.636Z,100135.42
2018-01-24T21:06:17.717Z,100141.02
2018-01-24T21:08:45.238Z,100136.95
2018-01-24T21:11:12.748Z,100127.34
2018-01-24T21:13:40.341Z,100120.00
2018-01-24T21:16:08.145Z,100116.36
2018-01-24T21:18:35.949Z,100099.50
2018-01-24T21:21:03.551Z,100095.83
2018-01-24T21:23:31.162Z,100095.69
2018-01-24T21:25:59.166Z,100099.05
2018-01-24T21:28:38.258Z,100096.58
2018-01-24T21:31:17.620Z,100088.19
2018-01-24T21:34:03.477Z,100084.08
2018-01-24T21:36:33.950Z,100086.49
2018-01-24T21:39:01.521Z,100094.22
2018-01-24T21:41:29.038Z,100091.30
2018-01-24T21:43:56.628Z,100108.87
2018-01-24T21:46:24.146Z,100103.64
2018-01-24T21:48:51.697Z,100102.69
2018-01-24T21:51:19.235Z,100099.92
2018-01-24T21:53:46.856Z,100108.16
2018-01-24T21:56:14.423Z,100111.14
2018-01-24T21:58:41.986Z,100110.44
2018-01-24T22:01:09.511Z,100116.68
2018-01-24T22:03:37.081Z,100111.45
2018-01-24T22:06:04.610Z,100104.66
2018-01-24T22:08:32.183Z,100102.96
2018-01-24T22:10:59.696Z,100097.63
2018-01-24T22:13:27.218Z,100101.93
2018-01-24T22:15:54.749Z,100089.66
2018-01-24T22:18:23.088Z,100094.84
2018-01-24T22:20:50.647Z,100088.69
2018-01-24T22:23:18.159Z,100093.81
2018-01-24T22:25:45.699Z,100094.69
2018-01-24T22:28:13.179Z,100100.23
2018-01-24T22:30:40.715Z,100107.72
2018-01-24T22:33:08.239Z,100111.56
2018-01-24T22:35:35.730Z,100112.78
2018-01-24T22:38:03.279Z,100120.99
2018-01-24T22:40:30.781Z,100116.38
2018-01-24T22:42:58.327Z,100129.17
2018-01-24T22:45:25.883Z,100120.38
2018-01-24T22:47:53.428Z,100115.28
2018-01-24T22:50:20.982Z,100114.45
2018-01-24T22:52:48.477Z,100108.87
2018-01-24T22:55:16.862Z,100108.48
2018-01-24T22:57:44.362Z,100098.16
2018-01-24T23:00:11.855Z,100101.20
2018-01-24T23:02:39.377Z,100108.34
2018-01-24T23:05:06.865Z,100105.45
2018-01-24T23:07:34.383Z,100105.94
2018-01-24T23:10:01.850Z,100092.28
2018-01-24T23:12:29.424Z,100098.31
2018-01-24T23:14:56.972Z,100088.16
2018-01-24T23:17:24.491Z,100093.05
2018-01-24T23:19:53.116Z,100090.24
2018-01-24T23:22:20.683Z,100078.88
2018-01-24T23:24:48.172Z,100086.54
2018-01-24T23:27:15.692Z,100078.81
2018-01-24T23:29:43.184Z,100072.85
2018-01-24T23:32:10.716Z,100075.31
2018-01-24T23:34:38.236Z,100082.66
2018-01-24T23:37:05.766Z,100076.28
2018-01-24T23:39:33.287Z,100077.87
2018-01-24T23:42:00.854Z,100069.88
2018-01-24T23:44:28.352Z,100076.21
2018-01-24T23:46:55.881Z,100079.30
2018-01-24T23:49:23.467Z,100085.74
2018-01-24T23:51:51.012Z,100092.08
2018-01-24T23:54:18.552Z,100098.88
2018-01-24T23:56:46.098Z,100092.40
2018-01-24T23:59:13.607Z,100096.48
